Sharjah, United Arab Emirates
Current Conditions -  °F | °C
As of 7:00 PM on Wednesday 22 Oct 2014 (Local Time) from OMSJ Reporting Station
Clear Clear  
Wind Chill: 90°   Ceiling: Unl
Heat Index: 98°   Visibility: 6mi
Dew Point: 73°   Wind: 9mph
Humidity: 59%   Direction: 290°WNW
Pressure: 29.94"   Gusts: NA
Location:  25.37°N, 55.41°E
Report Text: OMSJ 221500Z 29008KT CAVOK 32/23 Q1014
Loading
Personal Weather Stations






























Interactive Weather Map
Tropical Storm Tracking
New forecast layout! Learn more

10-Day Weather Forecast

Advertisements
Track Severe Weather on mobile